Time;durP1;ratioP1;P1;durP2;ratioP2;P2;SDS_P1;SDS_P2;PMS_P1;PMS_P2;Temp;Humidity;BMP_temperature;BMP_pressure;BME280_temperature;BME280_humidity;BME280_pressure;Samples;Min_cycle;Max_cycle;Signal;HPM_P1;HPM_P2
2023/05/23 00:02:08;;;;;;;5.37;4.87;;;18.10;99.90;;;;;;5007814;28;21001;-73
2023/05/23 00:04:35;;;;;;;4.80;4.30;;;18.00;99.90;;;;;;5021416;28;21198;-73
2023/05/23 00:07:02;;;;;;;4.97;4.53;;;18.00;99.90;;;;;;5028896;28;20584;-73
2023/05/23 00:09:28;;;;;;;4.83;4.30;;;18.00;99.90;;;;;;5030910;28;20675;-73
2023/05/23 00:11:54;;;;;;;7.03;5.20;;;17.90;99.90;;;;;;5029055;28;20588;-73
2023/05/23 00:14:20;;;;;;;6.43;5.70;;;17.90;99.90;;;;;;5030841;28;20639;-73
2023/05/23 00:16:48;;;;;;;5.90;5.00;;;17.90;99.90;;;;;;5029228;28;20715;-73
2023/05/23 00:19:15;;;;;;;5.60;4.90;;;17.80;99.90;;;;;;5029053;28;20631;-73
2023/05/23 00:21:49;;;;;;;6.47;5.77;;;17.80;99.90;;;;;;5029368;28;20585;-73
2023/05/23 00:24:19;;;;;;;5.70;5.10;;;17.70;99.90;;;;;;5021733;28;20624;-73
2023/05/23 00:26:45;;;;;;;6.10;5.50;;;17.70;99.90;;;;;;5010882;28;20624;-73
2023/05/23 00:29:17;;;;;;;7.07;5.53;;;17.60;99.90;;;;;;5010821;28;21151;-73
2023/05/23 00:31:46;;;;;;;5.83;5.27;;;17.60;99.90;;;;;;4997414;28;20672;-73
2023/05/23 00:34:16;;;;;;;7.00;6.30;;;17.60;99.90;;;;;;5014411;28;21216;-73
2023/05/23 00:36:42;;;;;;;7.53;6.50;;;17.50;99.90;;;;;;5014761;28;20667;-73
2023/05/23 00:39:16;;;;;;;7.17;6.47;;;17.50;99.90;;;;;;5013466;28;20593;-73
2023/05/23 00:41:41;;;;;;;7.17;6.47;;;17.50;99.90;;;;;;4995364;28;21190;-72
2023/05/23 00:44:08;;;;;;;9.83;7.77;;;17.40;99.90;;;;;;4997241;28;20613;-73
2023/05/23 00:46:35;;;;;;;7.90;7.20;;;17.40;99.90;;;;;;4996204;28;20258;-73
2023/05/23 00:49:01;;;;;;;8.53;7.73;;;17.40;99.90;;;;;;4999456;28;20659;-73
2023/05/23 00:51:27;;;;;;;7.90;7.10;;;17.40;99.90;;;;;;5012775;28;20596;-73
2023/05/23 00:53:53;;;;;;;8.53;7.60;;;17.40;99.90;;;;;;4996673;28;20597;-73
2023/05/23 00:56:19;;;;;;;9.10;7.30;;;17.40;99.90;;;;;;4996697;28;20593;-72
2023/05/23 00:58:46;;;;;;;9.00;8.20;;;17.50;99.90;;;;;;5001198;28;20598;-73
2023/05/23 01:01:14;;;;;;;7.60;6.63;;;17.50;99.90;;;;;;5025932;28;20588;-73
2023/05/23 01:03:39;;;;;;;7.67;6.90;;;17.60;99.90;;;;;;5015646;28;20626;-73
2023/05/23 01:06:06;;;;;;;7.43;6.37;;;17.60;99.90;;;;;;5032558;28;21191;-73
2023/05/23 01:08:31;;;;;;;7.63;6.87;;;17.70;99.90;;;;;;5031980;28;20217;-73
2023/05/23 01:11:02;;;;;;;7.40;6.33;;;17.70;99.90;;;;;;5015967;28;20603;-72
2023/05/23 01:13:39;;;;;;;7.90;6.23;;;17.80;99.90;;;;;;5029513;28;20193;-73
2023/05/23 01:16:17;;;;;;;7.17;6.57;;;17.90;99.90;;;;;;4995782;28;20640;-73
2023/05/23 01:19:01;;;;;;;6.60;5.93;;;17.90;99.90;;;;;;4980583;28;20583;-72
2023/05/23 01:21:28;;;;;;;6.10;5.33;;;18.00;99.90;;;;;;5012499;28;20589;-73
2023/05/23 01:24:06;;;;;;;6.57;6.00;;;18.00;99.90;;;;;;5013207;28;21061;-72
2023/05/23 01:26:35;;;;;;;6.50;5.80;;;18.10;99.90;;;;;;4976114;28;20605;-72
2023/05/23 01:29:10;;;;;;;7.87;6.73;;;18.10;99.90;;;;;;4996183;28;20585;-72
2023/05/23 01:31:42;;;;;;;5.90;5.40;;;18.10;99.90;;;;;;5011906;28;20576;-72
2023/05/23 01:34:09;;;;;;;7.20;5.90;;;18.20;99.90;;;;;;5012337;28;20648;-72
2023/05/23 01:36:41;;;;;;;6.60;6.00;;;18.20;99.90;;;;;;4995599;28;20676;-72
2023/05/23 01:39:07;;;;;;;7.43;6.73;;;18.20;99.90;;;;;;4996201;28;20624;-72
2023/05/23 01:41:33;;;;;;;7.07;6.37;;;18.30;99.90;;;;;;5011186;28;20624;-72
2023/05/23 01:43:59;;;;;;;6.93;6.10;;;18.30;99.90;;;;;;5012536;28;21282;-73
2023/05/23 01:46:27;;;;;;;9.47;7.17;;;18.30;99.90;;;;;;5012355;28;20269;-73
2023/05/23 01:48:55;;;;;;;7.20;6.50;;;18.30;99.90;;;;;;4995747;28;20581;-72
2023/05/23 01:51:22;;;;;;;8.00;7.20;;;18.30;99.90;;;;;;4995861;28;20596;-72
2023/05/23 01:53:49;;;;;;;5.73;4.40;;;18.30;99.90;;;;;;5011623;28;20585;-73
2023/05/23 01:56:15;;;;;;;5.10;3.90;;;18.30;99.90;;;;;;5012211;28;21106;-72
2023/05/23 01:58:42;;;;;;;4.47;4.03;;;18.30;99.90;;;;;;4995422;28;20609;-73
2023/05/23 02:01:09;;;;;;;5.70;4.50;;;18.30;99.90;;;;;;5011656;28;20655;-73
2023/05/23 02:03:35;;;;;;;5.17;4.50;;;18.30;99.90;;;;;;4995989;28;20589;-73
2023/05/23 02:06:01;;;;;;;4.30;3.67;;;18.30;99.90;;;;;;5011328;28;20667;-73
2023/05/23 02:08:27;;;;;;;3.30;2.70;;;18.30;99.90;;;;;;5013430;28;20174;-73
2023/05/23 02:10:52;;;;;;;4.10;3.50;;;18.20;99.90;;;;;;4995339;28;20170;-73
2023/05/23 02:13:19;;;;;;;4.10;3.17;;;18.20;99.90;;;;;;5011982;28;20263;-73
2023/05/23 02:15:44;;;;;;;5.13;2.57;;;18.20;99.90;;;;;;4994618;28;20747;-73
2023/05/23 02:18:10;;;;;;;4.53;2.70;;;18.10;99.90;;;;;;4995660;28;20885;-73
2023/05/23 02:20:39;;;;;;;4.20;3.20;;;18.10;99.90;;;;;;5011622;28;20661;-73
2023/05/23 02:23:05;;;;;;;3.33;2.50;;;18.10;99.90;;;;;;5012635;28;21042;-73
2023/05/23 02:25:31;;;;;;;2.50;2.00;;;18.10;99.90;;;;;;4994919;28;21212;-73
2023/05/23 02:27:57;;;;;;;3.20;2.60;;;18.10;99.90;;;;;;5012362;28;20569;-73
2023/05/23 02:30:23;;;;;;;3.30;2.13;;;18.10;99.90;;;;;;5011768;28;20179;-73
2023/05/23 02:32:48;;;;;;;2.67;2.00;;;18.10;99.90;;;;;;5011157;28;20607;-73
2023/05/23 02:35:14;;;;;;;3.03;2.33;;;18.10;99.90;;;;;;4997525;28;20297;-73
2023/05/23 02:37:40;;;;;;;3.83;2.80;;;18.10;99.90;;;;;;5018289;28;20291;-73
2023/05/23 02:40:06;;;;;;;3.47;2.70;;;18.10;99.90;;;;;;4995133;28;20174;-73
2023/05/23 02:42:33;;;;;;;2.70;2.40;;;18.10;99.90;;;;;;5011408;28;20263;-73
2023/05/23 02:45:00;;;;;;;5.03;2.50;;;18.10;99.90;;;;;;4994715;28;21203;-73
2023/05/23 02:47:26;;;;;;;3.33;2.00;;;18.10;99.90;;;;;;4994876;28;20613;-73
2023/05/23 02:49:52;;;;;;;4.77;2.47;;;18.20;99.90;;;;;;4994323;28;20667;-73
2023/05/23 02:52:18;;;;;;;3.23;2.93;;;18.20;99.90;;;;;;4995056;28;20178;-73
2023/05/23 02:54:44;;;;;;;4.60;2.70;;;18.10;99.90;;;;;;5011633;28;20206;-73
2023/05/23 02:57:11;;;;;;;3.90;2.60;;;18.10;99.90;;;;;;5010849;28;20652;-73
2023/05/23 02:59:39;;;;;;;2.83;2.20;;;18.10;99.90;;;;;;4994878;28;20655;-73
2023/05/23 03:02:05;;;;;;;3.83;2.50;;;18.10;99.90;;;;;;5010304;28;21410;-74
2023/05/23 03:04:31;;;;;;;3.40;2.87;;;18.10;99.90;;;;;;5010964;28;20621;-73
2023/05/23 03:06:58;;;;;;;3.50;2.47;;;18.10;99.90;;;;;;4993801;28;20236;-73
2023/05/23 03:09:24;;;;;;;4.30;3.60;;;18.10;99.90;;;;;;4994528;28;20205;-73
2023/05/23 03:11:51;;;;;;;3.43;3.13;;;18.10;99.90;;;;;;4994090;28;20589;-74
2023/05/23 03:14:17;;;;;;;3.63;3.20;;;18.10;99.90;;;;;;5010936;28;21286;-73
2023/05/23 03:16:43;;;;;;;4.60;3.87;;;18.10;99.90;;;;;;4994156;28;20174;-73
2023/05/23 03:19:08;;;;;;;4.03;3.63;;;18.10;99.90;;;;;;4994280;28;20951;-73
2023/05/23 03:21:35;;;;;;;5.23;3.40;;;18.10;99.90;;;;;;5010753;28;20197;-72
2023/05/23 03:24:01;;;;;;;5.03;4.53;;;18.10;99.90;;;;;;5010352;28;20190;-73
2023/05/23 03:26:29;;;;;;;4.57;3.70;;;18.10;99.90;;;;;;4994475;28;20580;-73
2023/05/23 03:28:55;;;;;;;5.63;3.47;;;18.00;99.90;;;;;;4993901;28;20566;-73
2023/05/23 03:31:21;;;;;;;6.67;3.80;;;18.10;99.90;;;;;;5018159;28;20603;-73
2023/05/23 03:33:47;;;;;;;5.40;3.90;;;18.10;99.90;;;;;;5002242;28;20170;-73
2023/05/23 03:36:12;;;;;;;5.63;4.37;;;18.10;99.90;;;;;;4993869;28;20655;-73
2023/05/23 03:38:38;;;;;;;5.60;4.60;;;18.10;99.90;;;;;;5011895;28;20170;-73
2023/05/23 03:41:04;;;;;;;5.87;4.30;;;18.00;99.90;;;;;;5009905;28;20261;-72
2023/05/23 03:43:31;;;;;;;8.97;4.30;;;18.00;99.90;;;;;;4994152;28;20174;-73
2023/05/23 03:45:57;;;;;;;4.37;3.80;;;17.90;99.90;;;;;;4993509;28;20704;-72
2023/05/23 03:48:23;;;;;;;6.03;4.87;;;17.90;99.90;;;;;;5010626;28;20589;-73
2023/05/23 03:50:50;;;;;;;9.87;4.80;;;17.80;99.90;;;;;;4993300;28;20647;-73
2023/05/23 03:53:17;;;;;;;5.10;4.50;;;17.80;99.90;;;;;;4993781;28;20663;-73
2023/05/23 03:55:43;;;;;;;4.60;4.00;;;17.80;99.90;;;;;;4993450;28;20657;-73
2023/05/23 03:58:10;;;;;;;5.20;4.00;;;17.80;99.90;;;;;;4993817;28;20676;-72
2023/05/23 04:00:36;;;;;;;6.67;4.77;;;17.70;99.90;;;;;;4994016;28;20593;-75
2023/05/23 04:03:07;;;;;;;6.47;4.70;;;17.70;99.90;;;;;;4992604;28;20585;-75
2023/05/23 04:05:32;;;;;;;6.23;4.30;;;17.70;99.90;;;;;;5010112;28;20621;-75
2023/05/23 04:08:00;;;;;;;7.50;4.77;;;17.70;99.90;;;;;;4993152;28;20587;-75
2023/05/23 04:10:27;;;;;;;4.40;3.70;;;17.70;99.90;;;;;;5010164;28;20574;-75
2023/05/23 04:12:52;;;;;;;7.13;4.43;;;17.70;99.90;;;;;;4993131;28;21223;-75
2023/05/23 04:15:20;;;;;;;6.33;4.23;;;17.70;99.90;;;;;;4993348;28;20660;-75
2023/05/23 04:18:04;;;;;;;5.03;3.50;;;17.70;99.90;;;;;;4993468;28;20262;-75
2023/05/23 04:20:29;;;;;;;5.40;3.87;;;17.70;99.90;;;;;;4993339;28;20691;-77
2023/05/23 04:22:55;;;;;;;6.83;3.77;;;17.70;99.90;;;;;;5014795;28;20617;-78
2023/05/23 04:25:23;;;;;;;7.43;4.33;;;17.70;99.90;;;;;;4993182;28;20675;-78
2023/05/23 04:28:02;;;;;;;5.00;3.47;;;17.70;99.90;;;;;;5017509;28;20724;-78
2023/05/23 04:30:29;;;;;;;4.63;3.77;;;17.70;99.90;;;;;;5025209;28;20668;-78
2023/05/23 04:32:57;;;;;;;4.70;3.53;;;17.70;99.90;;;;;;5010085;28;20627;-78
2023/05/23 04:35:22;;;;;;;6.40;4.47;;;17.70;99.90;;;;;;4991882;28;20760;-78
2023/05/23 04:37:49;;;;;;;4.87;3.40;;;17.70;99.90;;;;;;4993070;28;20614;-78
2023/05/23 04:40:15;;;;;;;5.30;3.47;;;17.70;99.90;;;;;;4993628;28;20620;-78
2023/05/23 04:43:01;;;;;;;5.50;3.13;;;17.70;99.90;;;;;;5008285;28;20666;-78
2023/05/23 04:45:36;;;;;;;5.77;3.23;;;17.70;99.90;;;;;;4993581;28;20644;-78
2023/05/23 04:48:16;;;;;;;5.37;3.80;;;17.70;99.90;;;;;;4993161;28;21152;-78
2023/05/23 04:50:46;;;;;;;5.10;3.17;;;17.70;99.90;;;;;;5010044;28;20585;-78
2023/05/23 04:53:12;;;;;;;4.37;3.40;;;17.70;99.90;;;;;;4993002;28;20577;-78
2023/05/23 04:55:38;;;;;;;9.53;4.20;;;17.70;99.90;;;;;;4993354;28;20645;-78
2023/05/23 04:58:06;;;;;;;5.07;3.63;;;17.70;99.90;;;;;;4992560;28;20650;-78
2023/05/23 05:00:33;;;;;;;6.30;3.67;;;17.70;99.90;;;;;;4997975;28;20655;-78
2023/05/23 05:02:59;;;;;;;8.07;4.30;;;17.70;99.90;;;;;;4995011;28;20589;-78
2023/05/23 05:05:28;;;;;;;4.70;3.43;;;17.70;99.90;;;;;;4992863;28;20610;-75
2023/05/23 05:07:53;;;;;;;3.73;3.27;;;17.70;99.90;;;;;;4993203;28;20672;-74
2023/05/23 05:10:19;;;;;;;5.30;3.60;;;17.70;99.90;;;;;;5009109;28;20187;-74
2023/05/23 05:12:48;;;;;;;4.10;3.03;;;17.70;99.90;;;;;;5009580;28;20524;-74
2023/05/23 05:15:16;;;;;;;8.23;3.87;;;17.70;99.90;;;;;;5010227;28;20637;-74
2023/05/23 05:17:45;;;;;;;4.13;3.67;;;17.70;99.90;;;;;;4996614;28;20578;-74
2023/05/23 05:20:12;;;;;;;4.70;3.73;;;17.70;99.90;;;;;;4996728;28;20593;-74
2023/05/23 05:22:39;;;;;;;6.40;4.37;;;17.70;99.90;;;;;;4999725;28;20603;-75
2023/05/23 05:25:06;;;;;;;6.77;4.70;;;17.70;99.90;;;;;;5024195;28;20659;-74
2023/05/23 05:27:33;;;;;;;6.57;3.60;;;17.70;99.90;;;;;;5015322;28;20584;-74
2023/05/23 05:30:03;;;;;;;4.37;3.40;;;17.70;99.90;;;;;;5016189;28;21151;-74
2023/05/23 05:32:32;;;;;;;5.90;3.40;;;17.70;99.90;;;;;;5032155;28;20953;-74
2023/05/23 05:35:00;;;;;;;4.50;3.90;;;17.70;99.90;;;;;;5001784;28;20644;-74
2023/05/23 05:37:28;;;;;;;5.00;3.60;;;17.70;99.90;;;;;;5016542;28;20585;-75
2023/05/23 05:39:54;;;;;;;5.57;4.10;;;17.70;99.90;;;;;;4996691;28;20585;-76
2023/05/23 05:42:21;;;;;;;6.13;3.87;;;17.70;99.90;;;;;;5012998;28;20586;-75
2023/05/23 05:44:48;;;;;;;6.17;3.80;;;17.70;99.90;;;;;;4995704;28;20719;-75
2023/05/23 05:47:15;;;;;;;5.60;4.60;;;17.80;99.90;;;;;;4995773;28;20659;-74
2023/05/23 05:49:41;;;;;;;5.60;3.97;;;17.70;99.90;;;;;;5011889;28;20620;-75
2023/05/23 05:52:07;;;;;;;5.10;3.40;;;17.80;99.90;;;;;;5012426;28;20616;-72
2023/05/23 05:54:34;;;;;;;4.20;3.50;;;17.80;99.90;;;;;;5011459;28;20210;-72
2023/05/23 05:57:00;;;;;;;7.83;4.27;;;17.80;99.90;;;;;;5013357;28;20593;-72
2023/05/23 05:59:26;;;;;;;4.10;3.53;;;17.80;99.90;;;;;;4995843;28;20576;-72
2023/05/23 06:01:54;;;;;;;5.57;4.20;;;17.80;99.90;;;;;;5011176;28;20616;-72
2023/05/23 06:04:20;;;;;;;5.67;4.40;;;17.80;99.90;;;;;;4995842;28;20613;-72
2023/05/23 06:06:45;;;;;;;6.93;4.50;;;17.80;99.90;;;;;;4995107;28;20581;-73
2023/05/23 06:09:11;;;;;;;5.70;3.93;;;17.80;99.90;;;;;;4995129;28;21164;-73
2023/05/23 06:11:39;;;;;;;7.30;4.60;;;17.80;99.90;;;;;;5011377;28;20210;-73
2023/05/23 06:14:06;;;;;;;6.27;4.23;;;17.80;99.90;;;;;;4999528;28;20198;-73
2023/05/23 06:16:32;;;;;;;7.03;4.93;;;17.80;99.90;;;;;;4994934;28;20605;-73
2023/05/23 06:18:58;;;;;;;6.00;4.60;;;17.80;99.90;;;;;;5008023;28;20713;-73
2023/05/23 06:21:27;;;;;;;5.93;4.13;;;17.80;99.90;;;;;;5021965;28;20586;-73
2023/05/23 06:23:53;;;;;;;7.17;5.50;;;17.80;99.90;;;;;;5030696;28;20587;-73
2023/05/23 06:26:19;;;;;;;8.27;6.13;;;17.80;99.90;;;;;;5029410;28;20177;-73
2023/05/23 06:28:44;;;;;;;5.90;4.90;;;17.80;99.90;;;;;;5012482;28;20189;-73
2023/05/23 06:31:11;;;;;;;10.20;5.73;;;17.80;99.90;;;;;;5011335;28;20182;-73
2023/05/23 06:33:37;;;;;;;9.10;5.00;;;17.80;99.90;;;;;;5011114;28;20655;-73
2023/05/23 06:36:03;;;;;;;6.50;4.40;;;17.80;99.90;;;;;;5011208;28;21032;-73
2023/05/23 06:38:32;;;;;;;5.23;4.70;;;17.80;99.90;;;;;;5012764;28;20620;-73
2023/05/23 06:40:59;;;;;;;7.40;4.60;;;17.80;99.90;;;;;;5010906;28;20933;-73
2023/05/23 06:43:25;;;;;;;6.47;4.97;;;17.80;99.90;;;;;;4995036;28;20569;-74
2023/05/23 06:45:52;;;;;;;7.50;5.43;;;17.80;99.90;;;;;;4994259;28;20668;-73
2023/05/23 06:48:18;;;;;;;7.93;5.07;;;17.90;99.90;;;;;;4995124;28;20680;-72
2023/05/23 06:50:45;;;;;;;6.80;5.10;;;17.80;99.90;;;;;;5014328;28;20676;-73
2023/05/23 06:53:11;;;;;;;5.97;4.80;;;17.80;99.90;;;;;;4994782;28;20624;-73
2023/05/23 06:55:37;;;;;;;6.47;5.20;;;17.80;99.90;;;;;;5011044;28;20688;-74
2023/05/23 06:58:05;;;;;;;6.03;4.57;;;17.80;99.90;;;;;;4994148;28;20680;-74
2023/05/23 07:00:32;;;;;;;6.50;5.40;;;17.70;99.90;;;;;;4993774;28;20581;-74
2023/05/23 07:03:26;;;;;;;6.57;4.40;;;17.80;99.90;;;;;;5008775;28;20585;-74
2023/05/23 07:05:53;;;;;;;6.90;4.50;;;17.80;99.90;;;;;;4990855;28;20633;-74
2023/05/23 07:08:21;;;;;;;7.97;4.53;;;17.90;99.90;;;;;;4975112;28;20582;-74
2023/05/23 07:11:00;;;;;;;6.13;4.90;;;17.90;99.90;;;;;;4991246;28;20588;-74
2023/05/23 07:13:39;;;;;;;5.20;3.97;;;17.90;99.90;;;;;;4990656;28;20582;-75
2023/05/23 07:16:05;;;;;;;5.73;5.17;;;18.00;99.90;;;;;;5010520;28;21281;-74
2023/05/23 07:18:33;;;;;;;5.37;4.33;;;18.10;99.90;;;;;;5005372;28;20611;-74
2023/05/23 07:20:59;;;;;;;4.73;4.23;;;18.20;99.90;;;;;;5030258;28;20604;-74
2023/05/23 07:23:25;;;;;;;6.83;5.07;;;18.20;99.90;;;;;;5030317;28;20264;-73
2023/05/23 07:25:52;;;;;;;9.53;6.00;;;18.30;99.90;;;;;;5012647;28;21249;-74
2023/05/23 07:28:25;;;;;;;4.73;3.70;;;18.30;99.90;;;;;;5017330;28;20585;-74
2023/05/23 07:30:52;;;;;;;5.20;4.40;;;18.30;99.90;;;;;;5029530;28;20599;-74
2023/05/23 07:33:18;;;;;;;4.80;4.30;;;18.30;99.90;;;;;;5013168;28;20584;-73
2023/05/23 07:35:46;;;;;;;4.57;3.93;;;18.30;99.90;;;;;;4973609;28;20645;-75
2023/05/23 07:38:12;;;;;;;6.00;4.00;;;18.30;99.90;;;;;;4973770;28;20610;-74
2023/05/23 07:40:39;;;;;;;6.63;4.37;;;18.30;99.90;;;;;;4974296;28;20958;-74
2023/05/23 07:43:04;;;;;;;9.27;4.37;;;18.30;99.90;;;;;;4990161;28;20262;-75
2023/05/23 07:45:30;;;;;;;8.83;4.20;;;18.30;99.90;;;;;;4990202;28;20702;-74
2023/05/23 07:47:57;;;;;;;5.67;3.87;;;18.30;99.90;;;;;;4989899;28;20633;-74
2023/05/23 07:50:26;;;;;;;8.77;4.53;;;18.30;99.90;;;;;;4990803;28;20587;-74
2023/05/23 07:52:52;;;;;;;4.47;3.10;;;18.20;99.90;;;;;;4989686;28;20599;-73
2023/05/23 07:55:26;;;;;;;6.00;4.50;;;18.20;99.90;;;;;;4990338;28;20649;-75
2023/05/23 07:57:55;;;;;;;5.30;4.30;;;18.30;99.90;;;;;;4973792;28;20579;-74
2023/05/23 08:00:21;;;;;;;7.17;4.70;;;18.30;99.90;;;;;;4974199;28;20653;-74
2023/05/23 08:02:53;;;;;;;7.30;4.63;;;18.30;99.90;;;;;;5007395;28;20651;-75
2023/05/23 08:05:24;;;;;;;10.93;3.90;;;18.30;99.90;;;;;;5013336;28;20716;-74
2023/05/23 08:07:54;;;;;;;6.73;4.20;;;18.40;99.90;;;;;;5009916;28;20597;-75
2023/05/23 08:10:20;;;;;;;7.63;4.03;;;18.40;99.90;;;;;;4992715;28;20747;-74
2023/05/23 08:12:46;;;;;;;6.63;3.90;;;18.40;99.90;;;;;;4997807;28;20629;-75
2023/05/23 08:15:14;;;;;;;7.90;4.50;;;18.40;99.90;;;;;;4986756;28;20642;-74
2023/05/23 08:17:46;;;;;;;4.40;3.77;;;18.40;99.90;;;;;;4990157;28;20582;-75
2023/05/23 08:20:11;;;;;;;5.73;4.13;;;18.50;99.90;;;;;;5006737;28;21268;-74
2023/05/23 08:22:37;;;;;;;5.27;3.87;;;18.50;99.90;;;;;;4989491;28;20186;-74
2023/05/23 08:25:04;;;;;;;4.33;3.93;;;18.50;99.90;;;;;;4990217;28;20640;-74
2023/05/23 08:27:34;;;;;;;5.33;4.13;;;18.50;99.90;;;;;;4989196;28;20688;-74
2023/05/23 08:30:08;;;;;;;5.27;3.60;;;18.50;99.90;;;;;;4990269;28;21015;-74
2023/05/23 08:32:34;;;;;;;5.50;3.83;;;18.50;99.90;;;;;;4989699;28;20574;-74
2023/05/23 08:35:00;;;;;;;6.80;4.27;;;18.50;99.90;;;;;;4971495;28;20651;-75
2023/05/23 08:37:26;;;;;;;5.20;4.10;;;18.50;99.90;;;;;;5009087;28;20588;-74
2023/05/23 08:39:52;;;;;;;7.00;3.87;;;18.50;99.90;;;;;;5009835;28;20265;-74
2023/05/23 08:42:35;;;;;;;5.90;4.10;;;18.50;99.90;;;;;;5014717;28;20178;-74
2023/05/23 08:45:02;;;;;;;9.37;5.20;;;18.50;99.90;;;;;;4992888;28;20621;-74
2023/05/23 08:47:33;;;;;;;5.37;4.83;;;18.50;99.90;;;;;;5009362;28;20629;-74
2023/05/23 08:50:03;;;;;;;5.13;4.20;;;18.50;99.90;;;;;;4994439;28;20593;-74
2023/05/23 08:52:32;;;;;;;6.13;5.07;;;18.40;99.90;;;;;;4996972;28;20596;-74
2023/05/23 08:55:00;;;;;;;7.27;4.30;;;18.30;99.90;;;;;;5010026;28;21100;-74
2023/05/23 08:57:29;;;;;;;7.23;5.13;;;18.30;99.90;;;;;;5013166;28;20983;-74
2023/05/23 09:00:00;;;;;;;8.33;5.50;;;18.30;99.90;;;;;;5012885;28;20577;-74
2023/05/23 09:02:28;;;;;;;6.07;4.53;;;18.30;99.90;;;;;;5013146;28;20570;-73
2023/05/23 09:05:04;;;;;;;7.73;5.70;;;18.30;99.90;;;;;;5013102;28;20629;-74
2023/05/23 09:07:30;;;;;;;6.47;5.13;;;18.20;99.90;;;;;;4998407;28;21137;-74
2023/05/23 09:09:57;;;;;;;7.43;5.50;;;18.20;99.90;;;;;;5008096;28;21152;-73
2023/05/23 09:12:23;;;;;;;7.73;5.63;;;18.20;99.90;;;;;;5032172;28;20633;-73
2023/05/23 09:14:49;;;;;;;8.30;4.80;;;18.30;99.90;;;;;;5016337;28;20700;-73
2023/05/23 09:17:18;;;;;;;7.87;4.60;;;18.30;99.90;;;;;;5032045;28;20607;-75
2023/05/23 09:19:48;;;;;;;6.40;4.50;;;18.30;99.90;;;;;;5016364;28;20591;-74
2023/05/23 09:22:33;;;;;;;11.60;6.00;;;18.30;99.90;;;;;;5033203;28;20602;-74
2023/05/23 09:25:06;;;;;;;9.33;4.97;;;18.30;99.90;;;;;;5016202;28;20624;-74
2023/05/23 09:27:38;;;;;;;8.30;5.00;;;18.30;99.90;;;;;;5015874;28;20626;-73
2023/05/23 09:30:09;;;;;;;10.87;5.33;;;18.20;99.90;;;;;;5032149;28;20588;-72
2023/05/23 09:32:34;;;;;;;9.57;5.30;;;18.20;99.90;;;;;;5033899;28;20182;-73
2023/05/23 09:35:06;;;;;;;11.53;5.20;;;18.10;99.90;;;;;;5023736;28;20731;-73
2023/05/23 09:37:38;;;;;;;7.43;5.13;;;18.00;99.90;;;;;;5023830;28;20629;-73
2023/05/23 09:40:09;;;;;;;9.80;5.40;;;18.00;99.90;;;;;;5026037;28;20601;-73
2023/05/23 09:42:40;;;;;;;5.73;5.20;;;17.90;99.90;;;;;;5004040;28;20596;-73
2023/05/23 09:45:06;;;;;;;9.43;4.73;;;17.90;99.90;;;;;;5020881;28;20624;-73
2023/05/23 09:47:33;;;;;;;9.37;4.63;;;17.80;99.90;;;;;;5007037;28;20683;-73
2023/05/23 09:49:59;;;;;;;6.20;4.23;;;17.80;99.90;;;;;;5021538;28;20672;-73
2023/05/23 09:52:25;;;;;;;8.57;4.53;;;17.70;99.90;;;;;;5011794;28;20179;-73
2023/05/23 09:54:51;;;;;;;5.47;4.40;;;17.70;99.90;;;;;;5011983;28;20644;-73
2023/05/23 09:57:20;;;;;;;5.83;4.27;;;17.70;99.90;;;;;;5012727;28;21127;-73
2023/05/23 09:59:55;;;;;;;6.43;4.27;;;17.60;99.90;;;;;;5012289;28;20210;-73
2023/05/23 10:03:03;;;;;;;6.00;4.60;;;17.60;99.90;;;;;;5012004;28;20576;-73
2023/05/23 10:05:47;;;;;;;8.50;4.43;;;17.50;99.90;;;;;;5021104;28;20654;-73
2023/05/23 10:08:25;;;;;;;8.03;4.20;;;17.60;99.90;;;;;;5028125;28;20592;-73
2023/05/23 10:10:57;;;;;;;7.93;4.87;;;17.70;99.90;;;;;;5031599;28;21448;-72
2023/05/23 10:13:27;;;;;;;7.90;4.83;;;17.70;99.90;;;;;;5031010;28;20599;-73
2023/05/23 10:16:08;;;;;;;9.33;5.00;;;17.80;99.90;;;;;;5032671;28;20628;-73
2023/05/23 10:18:42;;;;;;;8.60;4.43;;;17.90;99.90;;;;;;5031138;28;20580;-72
2023/05/23 10:21:14;;;;;;;8.43;5.20;;;17.90;99.90;;;;;;5032712;28;20650;-73
2023/05/23 10:23:41;;;;;;;9.67;5.57;;;18.00;99.90;;;;;;5031456;28;20572;-73
2023/05/23 10:26:07;;;;;;;8.97;4.30;;;18.10;99.90;;;;;;5030495;28;20620;-73
2023/05/23 10:28:33;;;;;;;6.00;4.43;;;18.20;99.90;;;;;;5031281;28;20572;-72
2023/05/23 10:31:00;;;;;;;6.70;3.90;;;18.40;99.90;;;;;;5032153;28;20170;-72
2023/05/23 10:33:30;;;;;;;6.87;4.30;;;18.50;99.90;;;;;;5013215;28;20584;-72
2023/05/23 10:36:03;;;;;;;5.63;3.90;;;18.60;99.90;;;;;;5011539;28;20636;-72
2023/05/23 10:38:40;;;;;;;7.33;3.97;;;18.60;99.90;;;;;;5013127;28;20579;-72
2023/05/23 10:41:12;;;;;;;8.53;4.03;;;18.60;99.90;;;;;;5011186;28;20588;-72
2023/05/23 10:43:43;;;;;;;5.90;3.90;;;18.60;99.90;;;;;;5012538;28;20671;-72
2023/05/23 10:46:13;;;;;;;4.60;3.30;;;18.70;99.90;;;;;;5012617;28;20578;-72
2023/05/23 10:48:43;;;;;;;5.33;3.70;;;18.70;99.90;;;;;;5012204;28;20596;-72
2023/05/23 10:51:10;;;;;;;6.27;3.17;;;18.80;99.90;;;;;;5012611;28;20581;-72
2023/05/23 10:53:45;;;;;;;5.57;3.20;;;18.90;99.90;;;;;;4994107;28;21220;-72
2023/05/23 10:56:22;;;;;;;4.57;2.93;;;18.90;99.90;;;;;;5012011;28;20631;-72
2023/05/23 10:58:56;;;;;;;4.97;3.13;;;18.90;99.90;;;;;;5011922;28;20577;-73
2023/05/23 11:01:22;;;;;;;6.27;3.10;;;18.90;99.90;;;;;;5018636;28;20956;-72
2023/05/23 11:03:52;;;;;;;6.57;3.90;;;18.80;99.90;;;;;;5024568;28;20709;-72
2023/05/23 11:06:32;;;;;;;5.50;3.13;;;18.70;99.90;;;;;;5031882;28;20654;-71
2023/05/23 11:09:11;;;;;;;4.23;3.20;;;18.60;99.90;;;;;;4994968;28;21060;-72
2023/05/23 11:11:58;;;;;;;5.03;3.67;;;18.50;99.90;;;;;;4992202;28;20586;-72
2023/05/23 11:14:30;;;;;;;7.10;3.63;;;18.30;99.90;;;;;;4991170;28;20650;-72
2023/05/23 11:16:57;;;;;;;6.97;4.27;;;18.20;99.90;;;;;;4990650;28;20587;-72
2023/05/23 11:19:26;;;;;;;4.67;4.17;;;18.20;99.90;;;;;;4992516;28;20577;-73
2023/05/23 11:22:02;;;;;;;5.83;3.63;;;18.10;99.90;;;;;;4990584;28;20625;-72
2023/05/23 11:24:51;;;;;;;7.10;3.83;;;18.10;99.90;;;;;;5007460;28;20612;-72
2023/05/23 11:27:30;;;;;;;6.60;3.80;;;18.00;99.90;;;;;;4991456;28;20589;-72
2023/05/23 11:30:05;;;;;;;8.87;4.83;;;18.00;99.90;;;;;;4992242;28;20569;-71
2023/05/23 11:32:32;;;;;;;7.57;4.73;;;18.00;99.90;;;;;;4991898;28;20910;-71
2023/05/23 11:35:05;;;;;;;5.53;3.90;;;18.00;99.90;;;;;;5005434;28;20691;-72
2023/05/23 11:37:31;;;;;;;7.37;5.03;;;18.00;99.90;;;;;;5010878;28;20617;-71
2023/05/23 11:39:57;;;;;;;7.43;4.63;;;18.10;99.90;;;;;;5011582;28;20936;-71
2023/05/23 11:42:23;;;;;;;7.47;4.07;;;18.10;99.90;;;;;;5010260;28;20588;-71
2023/05/23 11:44:50;;;;;;;8.20;5.20;;;18.20;99.90;;;;;;5009989;28;20292;-72
2023/05/23 11:47:17;;;;;;;6.70;4.93;;;18.30;99.90;;;;;;5011571;28;20572;-71
2023/05/23 11:49:46;;;;;;;7.43;4.60;;;18.50;99.90;;;;;;5011131;28;20668;-72
2023/05/23 11:52:12;;;;;;;7.00;5.80;;;18.80;99.90;;;;;;5010186;28;20637;-72
2023/05/23 11:54:45;;;;;;;9.83;6.00;;;19.00;99.90;;;;;;5010823;28;21008;-73
2023/05/23 11:57:13;;;;;;;6.27;4.70;;;19.30;99.90;;;;;;5001390;28;20600;-73
2023/05/23 11:59:38;;;;;;;8.33;4.80;;;19.70;99.90;;;;;;5023353;28;20581;-72
2023/05/23 12:02:06;;;;;;;7.87;4.63;;;20.20;99.90;;;;;;5030619;28;20929;-72
2023/05/23 12:04:35;;;;;;;7.40;5.47;;;20.60;99.90;;;;;;5031116;28;20596;-73
2023/05/23 12:07:04;;;;;;;5.83;4.63;;;21.10;99.90;;;;;;5030344;28;20608;-72
2023/05/23 12:09:29;;;;;;;6.63;5.67;;;21.40;99.90;;;;;;5031278;28;20581;-73
2023/05/23 12:11:55;;;;;;;12.50;6.00;;;21.60;99.90;;;;;;5028973;28;20580;-73
2023/05/23 12:14:21;;;;;;;6.60;4.53;;;21.70;99.90;;;;;;5031095;28;20611;-72
2023/05/23 12:16:46;;;;;;;12.43;6.47;;;21.70;99.90;;;;;;5030478;28;20166;-72
2023/05/23 12:19:13;;;;;;;7.73;4.60;;;21.60;99.90;;;;;;5030852;28;20170;-72
2023/05/23 12:21:47;;;;;;;5.60;5.00;;;21.60;99.90;;;;;;5030915;28;20701;-72
2023/05/23 12:24:16;;;;;;;4.90;4.30;;;21.60;99.90;;;;;;5030627;28;20600;-73
2023/05/23 12:27:02;;;;;;;7.33;5.40;;;21.60;99.90;;;;;;5034771;28;20922;-73
2023/05/23 12:29:30;;;;;;;5.03;4.33;;;21.60;99.90;;;;;;5034422;28;20588;-74
2023/05/23 12:32:00;;;;;;;5.80;4.30;;;21.70;99.90;;;;;;5033669;28;20604;-73
2023/05/23 12:34:27;;;;;;;4.63;3.40;;;21.50;99.90;;;;;;5006817;28;20640;-72
2023/05/23 12:36:57;;;;;;;4.77;2.80;;;21.40;99.90;;;;;;5014849;28;21147;-72
2023/05/23 12:39:27;;;;;;;4.83;2.77;;;21.30;99.90;;;;;;5014512;28;20672;-72
2023/05/23 12:41:57;;;;;;;7.33;3.70;;;21.30;99.90;;;;;;5013790;28;20585;-73
2023/05/23 12:44:28;;;;;;;6.70;4.40;;;21.30;99.90;;;;;;5015016;28;21173;-72
2023/05/23 12:46:54;;;;;;;6.10;4.67;;;21.30;99.90;;;;;;5014371;28;20620;-72
2023/05/23 12:49:20;;;;;;;6.03;4.40;;;21.30;99.90;;;;;;5013143;28;21248;-73
2023/05/23 12:51:46;;;;;;;7.47;5.30;;;21.40;99.90;;;;;;5012718;28;20567;-73
2023/05/23 12:54:12;;;;;;;5.50;4.13;;;21.40;99.90;;;;;;5021209;28;20648;-73